sensor_id;sensor_type;location;lat;lon;timestamp;P1;durP1;ratioP1;P2;durP2;ratioP2
16845;SDS011;8539;53.188;8.696;2023-05-10T00:00:22;22.77;;;18.55;;
16845;SDS011;8539;53.188;8.696;2023-05-10T00:02:50;22.05;;;17.90;;
16845;SDS011;8539;53.188;8.696;2023-05-10T00:05:16;22.00;;;17.70;;
16845;SDS011;8539;53.188;8.696;2023-05-10T00:07:42;21.52;;;17.40;;
16845;SDS011;8539;53.188;8.696;2023-05-10T00:10:11;22.40;;;18.00;;
16845;SDS011;8539;53.188;8.696;2023-05-10T00:12:38;21.42;;;16.90;;
16845;SDS011;8539;53.188;8.696;2023-05-10T00:15:04;21.52;;;15.68;;
16845;SDS011;8539;53.188;8.696;2023-05-10T00:17:31;18.08;;;14.50;;
16845;SDS011;8539;53.188;8.696;2023-05-10T00:19:57;16.20;;;13.27;;
16845;SDS011;8539;53.188;8.696;2023-05-10T00:22:23;17.55;;;14.88;;
16845;SDS011;8539;53.188;8.696;2023-05-10T00:24:49;15.60;;;12.07;;
16845;SDS011;8539;53.188;8.696;2023-05-10T00:27:15;17.13;;;11.43;;
16845;SDS011;8539;53.188;8.696;2023-05-10T00:29:42;16.52;;;10.48;;
16845;SDS011;8539;53.188;8.696;2023-05-10T00:32:08;13.90;;;12.23;;
16845;SDS011;8539;53.188;8.696;2023-05-10T00:34:34;13.30;;;10.40;;
16845;SDS011;8539;53.188;8.696;2023-05-10T00:37:00;11.05;;;9.57;;
16845;SDS011;8539;53.188;8.696;2023-05-10T00:39:26;11.85;;;9.85;;
16845;SDS011;8539;53.188;8.696;2023-05-10T00:41:53;10.98;;;9.30;;
16845;SDS011;8539;53.188;8.696;2023-05-10T00:44:20;9.88;;;8.85;;
16845;SDS011;8539;53.188;8.696;2023-05-10T00:46:46;13.18;;;9.60;;
16845;SDS011;8539;53.188;8.696;2023-05-10T00:49:14;11.43;;;9.60;;
16845;SDS011;8539;53.188;8.696;2023-05-10T00:51:41;11.45;;;8.70;;
16845;SDS011;8539;53.188;8.696;2023-05-10T00:54:09;11.90;;;7.95;;
16845;SDS011;8539;53.188;8.696;2023-05-10T00:56:40;9.77;;;8.25;;
16845;SDS011;8539;53.188;8.696;2023-05-10T00:59:07;10.35;;;8.38;;
16845;SDS011;8539;53.188;8.696;2023-05-10T01:01:34;9.05;;;7.97;;
16845;SDS011;8539;53.188;8.696;2023-05-10T01:04:01;10.13;;;7.50;;
16845;SDS011;8539;53.188;8.696;2023-05-10T01:06:28;8.80;;;7.38;;
16845;SDS011;8539;53.188;8.696;2023-05-10T01:08:55;8.27;;;6.95;;
16845;SDS011;8539;53.188;8.696;2023-05-10T01:11:21;8.95;;;6.57;;
16845;SDS011;8539;53.188;8.696;2023-05-10T01:13:51;8.25;;;5.82;;
16845;SDS011;8539;53.188;8.696;2023-05-10T01:16:22;6.20;;;5.25;;
16845;SDS011;8539;53.188;8.696;2023-05-10T01:18:49;6.30;;;5.25;;
16845;SDS011;8539;53.188;8.696;2023-05-10T01:26:42;5.07;;;4.57;;
16845;SDS011;8539;53.188;8.696;2023-05-10T01:29:50;6.97;;;6.13;;
16845;SDS011;8539;53.188;8.696;2023-05-10T01:35:22;11.00;;;4.97;;
16845;SDS011;8539;53.188;8.696;2023-05-10T01:40:39;5.53;;;4.83;;
16845;SDS011;8539;53.188;8.696;2023-05-10T01:43:26;4.28;;;3.88;;
16845;SDS011;8539;53.188;8.696;2023-05-10T01:46:16;5.30;;;4.55;;
16845;SDS011;8539;53.188;8.696;2023-05-10T01:48:54;7.38;;;4.30;;
16845;SDS011;8539;53.188;8.696;2023-05-10T01:51:23;7.15;;;4.78;;
16845;SDS011;8539;53.188;8.696;2023-05-10T01:53:54;4.35;;;3.75;;
16845;SDS011;8539;53.188;8.696;2023-05-10T01:56:29;9.23;;;4.05;;
16845;SDS011;8539;53.188;8.696;2023-05-10T01:58:57;5.68;;;4.60;;
16845;SDS011;8539;53.188;8.696;2023-05-10T02:01:25;9.73;;;4.70;;
16845;SDS011;8539;53.188;8.696;2023-05-10T02:03:52;6.00;;;3.95;;
16845;SDS011;8539;53.188;8.696;2023-05-10T02:06:22;7.60;;;4.07;;
16845;SDS011;8539;53.188;8.696;2023-05-10T02:08:50;7.45;;;4.90;;
16845;SDS011;8539;53.188;8.696;2023-05-10T02:11:18;4.63;;;4.10;;
16845;SDS011;8539;53.188;8.696;2023-05-10T02:13:47;4.18;;;3.60;;
16845;SDS011;8539;53.188;8.696;2023-05-10T02:16:16;4.65;;;3.83;;
16845;SDS011;8539;53.188;8.696;2023-05-10T02:18:43;11.90;;;4.00;;
16845;SDS011;8539;53.188;8.696;2023-05-10T02:21:11;4.18;;;3.78;;
16845;SDS011;8539;53.188;8.696;2023-05-10T02:23:39;9.70;;;4.70;;
16845;SDS011;8539;53.188;8.696;2023-05-10T02:26:06;5.38;;;4.28;;
16845;SDS011;8539;53.188;8.696;2023-05-10T02:28:33;5.90;;;3.72;;
16845;SDS011;8539;53.188;8.696;2023-05-10T02:31:00;6.85;;;3.40;;
16845;SDS011;8539;53.188;8.696;2023-05-10T02:33:27;4.47;;;3.47;;
16845;SDS011;8539;53.188;8.696;2023-05-10T02:35:57;7.38;;;4.15;;
16845;SDS011;8539;53.188;8.696;2023-05-10T02:38:24;5.28;;;4.03;;
16845;SDS011;8539;53.188;8.696;2023-05-10T02:40:52;4.65;;;3.90;;
16845;SDS011;8539;53.188;8.696;2023-05-10T02:43:19;5.85;;;4.13;;
16845;SDS011;8539;53.188;8.696;2023-05-10T02:45:48;12.75;;;4.53;;
16845;SDS011;8539;53.188;8.696;2023-05-10T02:48:15;4.43;;;3.85;;
16845;SDS011;8539;53.188;8.696;2023-05-10T02:50:45;6.13;;;4.20;;
16845;SDS011;8539;53.188;8.696;2023-05-10T02:53:18;7.00;;;3.13;;
16845;SDS011;8539;53.188;8.696;2023-05-10T02:55:49;5.50;;;3.08;;
16845;SDS011;8539;53.188;8.696;2023-05-10T02:58:18;5.03;;;3.50;;
16845;SDS011;8539;53.188;8.696;2023-05-10T03:00:47;4.82;;;3.83;;
16845;SDS011;8539;53.188;8.696;2023-05-10T03:03:13;4.57;;;4.10;;
16845;SDS011;8539;53.188;8.696;2023-05-10T03:05:39;5.88;;;4.00;;
16845;SDS011;8539;53.188;8.696;2023-05-10T03:08:05;6.18;;;4.18;;
16845;SDS011;8539;53.188;8.696;2023-05-10T03:10:32;5.75;;;4.40;;
16845;SDS011;8539;53.188;8.696;2023-05-10T03:15:59;6.78;;;4.45;;
16845;SDS011;8539;53.188;8.696;2023-05-10T03:18:37;5.25;;;4.47;;
16845;SDS011;8539;53.188;8.696;2023-05-10T03:21:07;6.90;;;4.70;;
16845;SDS011;8539;53.188;8.696;2023-05-10T03:23:43;7.13;;;5.55;;
16845;SDS011;8539;53.188;8.696;2023-05-10T03:26:25;7.30;;;4.57;;
16845;SDS011;8539;53.188;8.696;2023-05-10T03:28:52;8.18;;;5.18;;
16845;SDS011;8539;53.188;8.696;2023-05-10T03:31:20;6.68;;;5.25;;
16845;SDS011;8539;53.188;8.696;2023-05-10T03:33:50;6.65;;;4.60;;
16845;SDS011;8539;53.188;8.696;2023-05-10T03:36:17;7.38;;;5.40;;
16845;SDS011;8539;53.188;8.696;2023-05-10T03:38:44;10.73;;;5.32;;
16845;SDS011;8539;53.188;8.696;2023-05-10T03:41:10;7.82;;;5.80;;
16845;SDS011;8539;53.188;8.696;2023-05-10T03:43:36;9.70;;;4.75;;
16845;SDS011;8539;53.188;8.696;2023-05-10T03:46:03;7.10;;;5.00;;
16845;SDS011;8539;53.188;8.696;2023-05-10T03:48:30;9.40;;;5.13;;
16845;SDS011;8539;53.188;8.696;2023-05-10T03:50:56;9.02;;;4.90;;
16845;SDS011;8539;53.188;8.696;2023-05-10T03:53:22;8.25;;;5.38;;
16845;SDS011;8539;53.188;8.696;2023-05-10T03:55:48;7.60;;;5.68;;
16845;SDS011;8539;53.188;8.696;2023-05-10T03:58:14;5.53;;;5.03;;
16845;SDS011;8539;53.188;8.696;2023-05-10T04:00:40;8.15;;;5.63;;
16845;SDS011;8539;53.188;8.696;2023-05-10T04:03:11;10.75;;;5.55;;
16845;SDS011;8539;53.188;8.696;2023-05-10T04:05:37;8.25;;;5.93;;
16845;SDS011;8539;53.188;8.696;2023-05-10T04:08:04;7.40;;;5.65;;
16845;SDS011;8539;53.188;8.696;2023-05-10T04:10:30;10.27;;;5.53;;
16845;SDS011;8539;53.188;8.696;2023-05-10T04:12:57;5.90;;;5.30;;
16845;SDS011;8539;53.188;8.696;2023-05-10T04:15:23;9.50;;;5.65;;
16845;SDS011;8539;53.188;8.696;2023-05-10T04:17:49;10.75;;;6.00;;
16845;SDS011;8539;53.188;8.696;2023-05-10T04:20:16;13.45;;;6.68;;
16845;SDS011;8539;53.188;8.696;2023-05-10T04:22:42;8.63;;;5.65;;
16845;SDS011;8539;53.188;8.696;2023-05-10T04:25:08;9.23;;;5.55;;
16845;SDS011;8539;53.188;8.696;2023-05-10T04:27:34;7.47;;;6.38;;
16845;SDS011;8539;53.188;8.696;2023-05-10T04:30:01;7.57;;;5.57;;
16845;SDS011;8539;53.188;8.696;2023-05-10T04:32:27;7.72;;;6.05;;
16845;SDS011;8539;53.188;8.696;2023-05-10T04:34:53;7.20;;;5.80;;
16845;SDS011;8539;53.188;8.696;2023-05-10T04:37:19;10.13;;;6.32;;
16845;SDS011;8539;53.188;8.696;2023-05-10T04:39:46;8.63;;;5.88;;
16845;SDS011;8539;53.188;8.696;2023-05-10T04:42:13;8.88;;;5.63;;
16845;SDS011;8539;53.188;8.696;2023-05-10T04:44:40;7.00;;;5.55;;
16845;SDS011;8539;53.188;8.696;2023-05-10T04:47:06;7.15;;;5.43;;
16845;SDS011;8539;53.188;8.696;2023-05-10T04:49:32;7.95;;;5.50;;
16845;SDS011;8539;53.188;8.696;2023-05-10T04:51:58;11.23;;;6.63;;
16845;SDS011;8539;53.188;8.696;2023-05-10T04:54:24;9.70;;;6.05;;
16845;SDS011;8539;53.188;8.696;2023-05-10T04:56:50;10.15;;;5.90;;
16845;SDS011;8539;53.188;8.696;2023-05-10T04:59:17;8.02;;;6.72;;
16845;SDS011;8539;53.188;8.696;2023-05-10T05:01:43;9.40;;;6.80;;
16845;SDS011;8539;53.188;8.696;2023-05-10T05:04:09;10.80;;;6.05;;
16845;SDS011;8539;53.188;8.696;2023-05-10T05:06:35;7.97;;;6.80;;
16845;SDS011;8539;53.188;8.696;2023-05-10T05:09:01;6.97;;;5.55;;
16845;SDS011;8539;53.188;8.696;2023-05-10T05:11:27;9.27;;;5.28;;
16845;SDS011;8539;53.188;8.696;2023-05-10T05:13:53;8.93;;;6.15;;
16845;SDS011;8539;53.188;8.696;2023-05-10T05:16:19;10.88;;;6.28;;
16845;SDS011;8539;53.188;8.696;2023-05-10T05:18:45;9.57;;;6.68;;
16845;SDS011;8539;53.188;8.696;2023-05-10T05:21:18;7.97;;;6.40;;
16845;SDS011;8539;53.188;8.696;2023-05-10T05:23:45;11.50;;;7.07;;
16845;SDS011;8539;53.188;8.696;2023-05-10T05:26:12;9.27;;;6.47;;
16845;SDS011;8539;53.188;8.696;2023-05-10T05:28:38;14.48;;;8.30;;
16845;SDS011;8539;53.188;8.696;2023-05-10T05:31:04;10.23;;;7.60;;
16845;SDS011;8539;53.188;8.696;2023-05-10T05:33:31;8.50;;;6.15;;
16845;SDS011;8539;53.188;8.696;2023-05-10T05:35:57;10.80;;;6.63;;
16845;SDS011;8539;53.188;8.696;2023-05-10T05:38:25;11.88;;;7.38;;
16845;SDS011;8539;53.188;8.696;2023-05-10T05:40:51;12.07;;;7.80;;
16845;SDS011;8539;53.188;8.696;2023-05-10T05:43:18;13.63;;;7.47;;
16845;SDS011;8539;53.188;8.696;2023-05-10T05:45:44;13.68;;;6.65;;
16845;SDS011;8539;53.188;8.696;2023-05-10T05:48:10;12.82;;;8.13;;
16845;SDS011;8539;53.188;8.696;2023-05-10T05:50:36;11.00;;;7.18;;
16845;SDS011;8539;53.188;8.696;2023-05-10T05:53:02;11.32;;;8.45;;
16845;SDS011;8539;53.188;8.696;2023-05-10T05:55:29;12.75;;;8.45;;
16845;SDS011;8539;53.188;8.696;2023-05-10T05:57:57;13.38;;;8.05;;
16845;SDS011;8539;53.188;8.696;2023-05-10T06:00:23;9.30;;;6.30;;
16845;SDS011;8539;53.188;8.696;2023-05-10T06:02:49;11.85;;;7.53;;
16845;SDS011;8539;53.188;8.696;2023-05-10T06:05:15;11.75;;;7.53;;
16845;SDS011;8539;53.188;8.696;2023-05-10T06:07:42;10.68;;;7.30;;
16845;SDS011;8539;53.188;8.696;2023-05-10T06:10:08;11.43;;;8.23;;
16845;SDS011;8539;53.188;8.696;2023-05-10T06:12:35;10.07;;;8.38;;
16845;SDS011;8539;53.188;8.696;2023-05-10T06:15:01;13.60;;;8.80;;
16845;SDS011;8539;53.188;8.696;2023-05-10T06:17:28;15.32;;;8.82;;
16845;SDS011;8539;53.188;8.696;2023-05-10T06:19:54;12.73;;;8.85;;
16845;SDS011;8539;53.188;8.696;2023-05-10T06:22:20;9.27;;;7.65;;
16845;SDS011;8539;53.188;8.696;2023-05-10T06:24:48;13.23;;;7.30;;
16845;SDS011;8539;53.188;8.696;2023-05-10T06:27:14;12.02;;;8.23;;
16845;SDS011;8539;53.188;8.696;2023-05-10T06:29:40;14.15;;;9.23;;
16845;SDS011;8539;53.188;8.696;2023-05-10T06:32:07;14.23;;;9.13;;
16845;SDS011;8539;53.188;8.696;2023-05-10T06:34:33;14.32;;;10.23;;
16845;SDS011;8539;53.188;8.696;2023-05-10T06:36:59;19.92;;;11.80;;
16845;SDS011;8539;53.188;8.696;2023-05-10T06:39:25;23.33;;;11.13;;
16845;SDS011;8539;53.188;8.696;2023-05-10T06:41:51;25.23;;;11.73;;
16845;SDS011;8539;53.188;8.696;2023-05-10T06:44:17;17.73;;;10.73;;
16845;SDS011;8539;53.188;8.696;2023-05-10T06:46:44;26.27;;;11.85;;
16845;SDS011;8539;53.188;8.696;2023-05-10T06:49:11;20.77;;;11.90;;
16845;SDS011;8539;53.188;8.696;2023-05-10T06:51:37;19.05;;;11.63;;
16845;SDS011;8539;53.188;8.696;2023-05-10T06:54:03;19.02;;;11.93;;
16845;SDS011;8539;53.188;8.696;2023-05-10T06:56:29;18.33;;;11.73;;
16845;SDS011;8539;53.188;8.696;2023-05-10T06:58:55;16.70;;;12.98;;
16845;SDS011;8539;53.188;8.696;2023-05-10T07:01:21;16.40;;;12.63;;
16845;SDS011;8539;53.188;8.696;2023-05-10T07:03:48;16.60;;;12.48;;
16845;SDS011;8539;53.188;8.696;2023-05-10T07:06:15;14.88;;;10.25;;
16845;SDS011;8539;53.188;8.696;2023-05-10T07:08:41;14.32;;;9.65;;
16845;SDS011;8539;53.188;8.696;2023-05-10T07:11:07;12.18;;;9.50;;
16845;SDS011;8539;53.188;8.696;2023-05-10T07:13:34;10.98;;;9.75;;
16845;SDS011;8539;53.188;8.696;2023-05-10T07:16:00;12.50;;;8.75;;
16845;SDS011;8539;53.188;8.696;2023-05-10T07:18:28;11.15;;;9.70;;
16845;SDS011;8539;53.188;8.696;2023-05-10T07:20:54;11.48;;;8.98;;
16845;SDS011;8539;53.188;8.696;2023-05-10T07:23:20;9.60;;;8.30;;
16845;SDS011;8539;53.188;8.696;2023-05-10T07:25:47;9.05;;;7.80;;
16845;SDS011;8539;53.188;8.696;2023-05-10T07:28:15;9.07;;;7.68;;
16845;SDS011;8539;53.188;8.696;2023-05-10T07:30:41;10.63;;;8.95;;
16845;SDS011;8539;53.188;8.696;2023-05-10T07:33:08;9.73;;;8.57;;
16845;SDS011;8539;53.188;8.696;2023-05-10T07:35:35;9.30;;;8.15;;
16845;SDS011;8539;53.188;8.696;2023-05-10T07:38:02;9.63;;;8.02;;
16845;SDS011;8539;53.188;8.696;2023-05-10T07:40:30;7.15;;;6.45;;
16845;SDS011;8539;53.188;8.696;2023-05-10T07:42:58;12.80;;;8.18;;
16845;SDS011;8539;53.188;8.696;2023-05-10T07:45:27;6.10;;;5.50;;
16845;SDS011;8539;53.188;8.696;2023-05-10T07:47:53;8.38;;;6.10;;
16845;SDS011;8539;53.188;8.696;2023-05-10T07:50:19;6.97;;;5.97;;
16845;SDS011;8539;53.188;8.696;2023-05-10T07:52:46;7.03;;;5.43;;
16845;SDS011;8539;53.188;8.696;2023-05-10T07:55:13;6.57;;;5.75;;
16845;SDS011;8539;53.188;8.696;2023-05-10T07:57:40;6.25;;;5.68;;
16845;SDS011;8539;53.188;8.696;2023-05-10T08:00:06;7.95;;;5.85;;
16845;SDS011;8539;53.188;8.696;2023-05-10T08:02:34;7.03;;;5.72;;
16845;SDS011;8539;53.188;8.696;2023-05-10T08:05:01;7.60;;;5.80;;
16845;SDS011;8539;53.188;8.696;2023-05-10T08:07:27;6.15;;;5.55;;
16845;SDS011;8539;53.188;8.696;2023-05-10T08:09:53;6.07;;;4.68;;
16845;SDS011;8539;53.188;8.696;2023-05-10T08:12:19;6.07;;;5.28;;
16845;SDS011;8539;53.188;8.696;2023-05-10T08:14:45;7.25;;;5.80;;
16845;SDS011;8539;53.188;8.696;2023-05-10T08:17:11;7.30;;;5.43;;
16845;SDS011;8539;53.188;8.696;2023-05-10T08:19:37;6.97;;;5.25;;
16845;SDS011;8539;53.188;8.696;2023-05-10T08:22:03;6.97;;;5.05;;
16845;SDS011;8539;53.188;8.696;2023-05-10T08:24:29;6.57;;;5.25;;
16845;SDS011;8539;53.188;8.696;2023-05-10T08:26:55;7.22;;;5.70;;
16845;SDS011;8539;53.188;8.696;2023-05-10T08:29:22;7.60;;;4.72;;
16845;SDS011;8539;53.188;8.696;2023-05-10T08:31:48;7.10;;;5.93;;
16845;SDS011;8539;53.188;8.696;2023-05-10T08:34:14;6.55;;;5.85;;
16845;SDS011;8539;53.188;8.696;2023-05-10T08:36:43;5.78;;;5.07;;
16845;SDS011;8539;53.188;8.696;2023-05-10T08:39:09;8.02;;;5.70;;
16845;SDS011;8539;53.188;8.696;2023-05-10T08:41:35;7.50;;;6.75;;
16845;SDS011;8539;53.188;8.696;2023-05-10T08:44:05;7.93;;;6.30;;
16845;SDS011;8539;53.188;8.696;2023-05-10T08:46:33;6.68;;;5.95;;
16845;SDS011;8539;53.188;8.696;2023-05-10T08:49:04;8.10;;;6.00;;
16845;SDS011;8539;53.188;8.696;2023-05-10T08:51:35;7.75;;;6.85;;
16845;SDS011;8539;53.188;8.696;2023-05-10T08:54:05;6.38;;;5.07;;
16845;SDS011;8539;53.188;8.696;2023-05-10T08:56:32;5.30;;;4.22;;
16845;SDS011;8539;53.188;8.696;2023-05-10T08:58:58;5.40;;;4.82;;
16845;SDS011;8539;53.188;8.696;2023-05-10T09:01:25;4.68;;;3.10;;
16845;SDS011;8539;53.188;8.696;2023-05-10T09:03:53;5.93;;;4.60;;
16845;SDS011;8539;53.188;8.696;2023-05-10T09:06:20;3.67;;;3.30;;
16845;SDS011;8539;53.188;8.696;2023-05-10T09:08:46;4.13;;;3.78;;
16845;SDS011;8539;53.188;8.696;2023-05-10T09:11:13;4.95;;;3.78;;
16845;SDS011;8539;53.188;8.696;2023-05-10T09:13:39;5.80;;;3.72;;
16845;SDS011;8539;53.188;8.696;2023-05-10T09:16:05;7.53;;;4.10;;
16845;SDS011;8539;53.188;8.696;2023-05-10T09:18:32;4.53;;;4.13;;
16845;SDS011;8539;53.188;8.696;2023-05-10T09:20:57;4.93;;;3.47;;
16845;SDS011;8539;53.188;8.696;2023-05-10T09:23:23;5.57;;;3.63;;
16845;SDS011;8539;53.188;8.696;2023-05-10T09:26:03;4.73;;;3.30;;
16845;SDS011;8539;53.188;8.696;2023-05-10T09:28:51;3.38;;;3.03;;
16845;SDS011;8539;53.188;8.696;2023-05-10T09:31:22;3.88;;;2.83;;
16845;SDS011;8539;53.188;8.696;2023-05-10T09:33:52;4.78;;;2.33;;
16845;SDS011;8539;53.188;8.696;2023-05-10T09:36:19;5.30;;;2.58;;
16845;SDS011;8539;53.188;8.696;2023-05-10T09:38:48;2.67;;;2.30;;
16845;SDS011;8539;53.188;8.696;2023-05-10T09:41:20;2.33;;;1.55;;
16845;SDS011;8539;53.188;8.696;2023-05-10T09:43:47;3.10;;;1.73;;
16845;SDS011;8539;53.188;8.696;2023-05-10T09:46:15;2.08;;;1.77;;
16845;SDS011;8539;53.188;8.696;2023-05-10T09:48:45;2.05;;;1.70;;
16845;SDS011;8539;53.188;8.696;2023-05-10T09:51:25;3.97;;;2.13;;
16845;SDS011;8539;53.188;8.696;2023-05-10T09:54:13;4.45;;;2.35;;
16845;SDS011;8539;53.188;8.696;2023-05-10T09:56:42;3.28;;;2.33;;
16845;SDS011;8539;53.188;8.696;2023-05-10T09:59:10;3.67;;;3.03;;
16845;SDS011;8539;53.188;8.696;2023-05-10T10:01:37;3.17;;;2.60;;
16845;SDS011;8539;53.188;8.696;2023-05-10T10:04:06;2.45;;;2.25;;
16845;SDS011;8539;53.188;8.696;2023-05-10T10:06:38;4.47;;;2.55;;
16845;SDS011;8539;53.188;8.696;2023-05-10T10:09:05;5.25;;;2.45;;
16845;SDS011;8539;53.188;8.696;2023-05-10T10:11:34;3.72;;;3.17;;
16845;SDS011;8539;53.188;8.696;2023-05-10T10:14:04;3.88;;;2.30;;
16845;SDS011;8539;53.188;8.696;2023-05-10T10:16:31;3.40;;;2.80;;
16845;SDS011;8539;53.188;8.696;2023-05-10T10:18:57;7.25;;;3.58;;
16845;SDS011;8539;53.188;8.696;2023-05-10T10:21:24;8.23;;;3.90;;
16845;SDS011;8539;53.188;8.696;2023-05-10T10:23:50;3.83;;;3.28;;
16845;SDS011;8539;53.188;8.696;2023-05-10T10:26:17;6.03;;;4.13;;
16845;SDS011;8539;53.188;8.696;2023-05-10T10:31:34;3.05;;;2.75;;
16845;SDS011;8539;53.188;8.696;2023-05-10T10:34:08;4.55;;;3.78;;
16845;SDS011;8539;53.188;8.696;2023-05-10T10:36:40;3.60;;;2.50;;
16845;SDS011;8539;53.188;8.696;2023-05-10T10:39:13;3.65;;;2.58;;
16845;SDS011;8539;53.188;8.696;2023-05-10T10:41:50;4.45;;;2.42;;
16845;SDS011;8539;53.188;8.696;2023-05-10T10:52:38;5.05;;;3.28;;
16845;SDS011;8539;53.188;8.696;2023-05-10T11:03:06;3.97;;;2.78;;
16845;SDS011;8539;53.188;8.696;2023-05-10T11:05:45;3.58;;;2.67;;
16845;SDS011;8539;53.188;8.696;2023-05-10T11:08:15;2.75;;;2.40;;
16845;SDS011;8539;53.188;8.696;2023-05-10T11:10:52;2.85;;;2.30;;
16845;SDS011;8539;53.188;8.696;2023-05-10T11:13:34;2.35;;;2.00;;
16845;SDS011;8539;53.188;8.696;2023-05-10T11:16:40;3.30;;;2.30;;
16845;SDS011;8539;53.188;8.696;2023-05-10T11:19:10;2.40;;;2.20;;
16845;SDS011;8539;53.188;8.696;2023-05-10T11:21:51;4.03;;;2.58;;
16845;SDS011;8539;53.188;8.696;2023-05-10T11:24:38;3.95;;;2.33;;
16845;SDS011;8539;53.188;8.696;2023-05-10T11:27:05;2.30;;;1.67;;
16845;SDS011;8539;53.188;8.696;2023-05-10T11:29:31;2.05;;;1.85;;
16845;SDS011;8539;53.188;8.696;2023-05-10T11:31:58;2.75;;;1.80;;
16845;SDS011;8539;53.188;8.696;2023-05-10T11:34:25;4.43;;;2.13;;
16845;SDS011;8539;53.188;8.696;2023-05-10T11:36:54;1.67;;;1.58;;
16845;SDS011;8539;53.188;8.696;2023-05-10T11:39:21;2.97;;;1.33;;
16845;SDS011;8539;53.188;8.696;2023-05-10T11:41:51;2.28;;;1.40;;
16845;SDS011;8539;53.188;8.696;2023-05-10T11:44:17;2.28;;;1.92;;
16845;SDS011;8539;53.188;8.696;2023-05-10T11:46:43;3.67;;;2.13;;
16845;SDS011;8539;53.188;8.696;2023-05-10T11:49:12;2.08;;;1.80;;
16845;SDS011;8539;53.188;8.696;2023-05-10T11:51:39;3.85;;;1.58;;
16845;SDS011;8539;53.188;8.696;2023-05-10T11:54:09;4.28;;;1.38;;
16845;SDS011;8539;53.188;8.696;2023-05-10T11:56:37;3.17;;;1.20;;
16845;SDS011;8539;53.188;8.696;2023-05-10T11:59:04;2.08;;;1.02;;
16845;SDS011;8539;53.188;8.696;2023-05-10T12:01:30;2.28;;;1.38;;
16845;SDS011;8539;53.188;8.696;2023-05-10T12:03:57;1.10;;;1.00;;
16845;SDS011;8539;53.188;8.696;2023-05-10T12:06:29;0.68;;;0.68;;
16845;SDS011;8539;53.188;8.696;2023-05-10T12:08:57;0.70;;;0.70;;
16845;SDS011;8539;53.188;8.696;2023-05-10T12:11:24;1.10;;;0.60;;
16845;SDS011;8539;53.188;8.696;2023-05-10T12:13:52;1.30;;;0.50;;
16845;SDS011;8539;53.188;8.696;2023-05-10T12:16:20;0.88;;;0.55;;
16845;SDS011;8539;53.188;8.696;2023-05-10T12:18:51;1.10;;;0.50;;
16845;SDS011;8539;53.188;8.696;2023-05-10T12:21:19;0.50;;;0.50;;
16845;SDS011;8539;53.188;8.696;2023-05-10T12:23:50;1.40;;;0.55;;
16845;SDS011;8539;53.188;8.696;2023-05-10T12:26:17;0.52;;;0.50;;
16845;SDS011;8539;53.188;8.696;2023-05-10T12:28:44;0.70;;;0.70;;
16845;SDS011;8539;53.188;8.696;2023-05-10T12:31:11;0.90;;;0.60;;
16845;SDS011;8539;53.188;8.696;2023-05-10T12:33:42;1.40;;;0.77;;
16845;SDS011;8539;53.188;8.696;2023-05-10T12:36:09;1.65;;;0.80;;
16845;SDS011;8539;53.188;8.696;2023-05-10T12:41:16;0.85;;;0.80;;
16845;SDS011;8539;53.188;8.696;2023-05-10T12:43:44;1.00;;;1.00;;
16845;SDS011;8539;53.188;8.696;2023-05-10T12:46:14;1.83;;;1.67;;
16845;SDS011;8539;53.188;8.696;2023-05-10T12:48:42;2.20;;;1.60;;
16845;SDS011;8539;53.188;8.696;2023-05-10T12:51:09;2.47;;;1.90;;
16845;SDS011;8539;53.188;8.696;2023-05-10T12:53:38;2.30;;;2.10;;
16845;SDS011;8539;53.188;8.696;2023-05-10T12:56:04;2.20;;;2.00;;
16845;SDS011;8539;53.188;8.696;2023-05-10T12:58:31;4.97;;;2.45;;
16845;SDS011;8539;53.188;8.696;2023-05-10T13:00:57;3.70;;;2.83;;
16845;SDS011;8539;53.188;8.696;2023-05-10T13:03:24;3.65;;;2.63;;
16845;SDS011;8539;53.188;8.696;2023-05-10T13:05:50;4.18;;;3.42;;
16845;SDS011;8539;53.188;8.696;2023-05-10T13:08:17;4.88;;;4.43;;
16845;SDS011;8539;53.188;8.696;2023-05-10T13:10:43;5.47;;;4.97;;
16845;SDS011;8539;53.188;8.696;2023-05-10T13:13:09;7.25;;;5.28;;
16845;SDS011;8539;53.188;8.696;2023-05-10T13:15:35;5.82;;;5.10;;
16845;SDS011;8539;53.188;8.696;2023-05-10T13:18:01;8.88;;;6.10;;
16845;SDS011;8539;53.188;8.696;2023-05-10T13:20:28;7.13;;;6.43;;
16845;SDS011;8539;53.188;8.696;2023-05-10T13:22:54;6.10;;;5.45;;
16845;SDS011;8539;53.188;8.696;2023-05-10T13:25:20;6.93;;;6.28;;
16845;SDS011;8539;53.188;8.696;2023-05-10T13:27:47;7.50;;;5.90;;
16845;SDS011;8539;53.188;8.696;2023-05-10T13:30:13;7.22;;;6.43;;
16845;SDS011;8539;53.188;8.696;2023-05-10T13:32:39;8.68;;;5.93;;
16845;SDS011;8539;53.188;8.696;2023-05-10T13:35:05;4.78;;;4.38;;
16845;SDS011;8539;53.188;8.696;2023-05-10T13:37:31;5.45;;;4.63;;
16845;SDS011;8539;53.188;8.696;2023-05-10T13:40:00;6.65;;;4.32;;
16845;SDS011;8539;53.188;8.696;2023-05-10T13:42:27;4.53;;;3.97;;
16845;SDS011;8539;53.188;8.696;2023-05-10T13:44:53;4.50;;;3.95;;
16845;SDS011;8539;53.188;8.696;2023-05-10T13:47:20;5.30;;;3.65;;
16845;SDS011;8539;53.188;8.696;2023-05-10T13:49:47;5.50;;;4.20;;
16845;SDS011;8539;53.188;8.696;2023-05-10T13:52:16;3.85;;;3.47;;
16845;SDS011;8539;53.188;8.696;2023-05-10T13:54:42;4.93;;;3.85;;
16845;SDS011;8539;53.188;8.696;2023-05-10T13:57:08;4.80;;;4.35;;
16845;SDS011;8539;53.188;8.696;2023-05-10T13:59:35;4.72;;;3.88;;
16845;SDS011;8539;53.188;8.696;2023-05-10T14:02:01;5.32;;;4.35;;
16845;SDS011;8539;53.188;8.696;2023-05-10T14:04:28;6.07;;;4.50;;
16845;SDS011;8539;53.188;8.696;2023-05-10T14:06:54;5.47;;;4.28;;
16845;SDS011;8539;53.188;8.696;2023-05-10T14:09:20;5.57;;;5.00;;
16845;SDS011;8539;53.188;8.696;2023-05-10T14:11:46;8.85;;;4.82;;
16845;SDS011;8539;53.188;8.696;2023-05-10T14:14:13;4.80;;;4.07;;
16845;SDS011;8539;53.188;8.696;2023-05-10T14:16:45;5.85;;;4.18;;
16845;SDS011;8539;53.188;8.696;2023-05-10T14:19:12;19.23;;;6.20;;
16845;SDS011;8539;53.188;8.696;2023-05-10T14:21:38;5.80;;;4.72;;
16845;SDS011;8539;53.188;8.696;2023-05-10T14:24:04;6.00;;;4.20;;
16845;SDS011;8539;53.188;8.696;2023-05-10T14:26:32;3.85;;;3.45;;
16845;SDS011;8539;53.188;8.696;2023-05-10T14:28:58;4.30;;;3.45;;
16845;SDS011;8539;53.188;8.696;2023-05-10T14:31:25;4.10;;;3.13;;
16845;SDS011;8539;53.188;8.696;2023-05-10T14:33:51;4.22;;;3.30;;
16845;SDS011;8539;53.188;8.696;2023-05-10T14:36:18;3.97;;;3.25;;
16845;SDS011;8539;53.188;8.696;2023-05-10T14:38:44;5.55;;;3.53;;
16845;SDS011;8539;53.188;8.696;2023-05-10T14:41:10;3.88;;;3.20;;
16845;SDS011;8539;53.188;8.696;2023-05-10T14:43:45;4.82;;;2.35;;
16845;SDS011;8539;53.188;8.696;2023-05-10T14:46:11;2.45;;;2.25;;
16845;SDS011;8539;53.188;8.696;2023-05-10T14:48:37;3.25;;;2.55;;
16845;SDS011;8539;53.188;8.696;2023-05-10T14:51:08;2.90;;;2.40;;
16845;SDS011;8539;53.188;8.696;2023-05-10T14:53:34;3.45;;;2.15;;
16845;SDS011;8539;53.188;8.696;2023-05-10T14:56:00;3.53;;;2.80;;
16845;SDS011;8539;53.188;8.696;2023-05-10T14:58:27;7.93;;;2.70;;
16845;SDS011;8539;53.188;8.696;2023-05-10T15:00:53;4.85;;;2.38;;
16845;SDS011;8539;53.188;8.696;2023-05-10T15:03:19;3.40;;;2.38;;
16845;SDS011;8539;53.188;8.696;2023-05-10T15:05:55;2.65;;;2.45;;
16845;SDS011;8539;53.188;8.696;2023-05-10T15:08:30;2.40;;;2.20;;
16845;SDS011;8539;53.188;8.696;2023-05-10T15:11:00;3.03;;;2.15;;
16845;SDS011;8539;53.188;8.696;2023-05-10T15:13:31;2.80;;;2.50;;
16845;SDS011;8539;53.188;8.696;2023-05-10T15:15:59;2.42;;;1.75;;
16845;SDS011;8539;53.188;8.696;2023-05-10T15:20:57;2.55;;;2.13;;
16845;SDS011;8539;53.188;8.696;2023-05-10T15:23:23;2.25;;;1.67;;
16845;SDS011;8539;53.188;8.696;2023-05-10T15:25:49;4.47;;;2.10;;
16845;SDS011;8539;53.188;8.696;2023-05-10T15:28:17;3.15;;;1.30;;
16845;SDS011;8539;53.188;8.696;2023-05-10T15:30:43;4.15;;;2.22;;
16845;SDS011;8539;53.188;8.696;2023-05-10T15:33:09;2.15;;;1.95;;
16845;SDS011;8539;53.188;8.696;2023-05-10T15:35:36;3.15;;;2.53;;
16845;SDS011;8539;53.188;8.696;2023-05-10T15:38:03;2.58;;;2.28;;
16845;SDS011;8539;53.188;8.696;2023-05-10T15:40:29;2.70;;;2.35;;